sensor_id;sensor_type;location;lat;lon;timestamp;P1;durP1;ratioP1;P2;durP2;ratioP2
14975;SDS011;7584;60.468;25.126;2023-11-22T00:01:47;5.90;;;2.73;;
14975;SDS011;7584;60.468;25.126;2023-11-22T00:04:13;6.33;;;3.13;;
14975;SDS011;7584;60.468;25.126;2023-11-22T00:06:38;7.50;;;2.80;;
14975;SDS011;7584;60.468;25.126;2023-11-22T00:09:03;5.23;;;2.40;;
14975;SDS011;7584;60.468;25.126;2023-11-22T00:11:29;4.20;;;2.40;;
14975;SDS011;7584;60.468;25.126;2023-11-22T00:13:55;4.63;;;2.53;;
14975;SDS011;7584;60.468;25.126;2023-11-22T00:16:21;5.00;;;2.90;;
14975;SDS011;7584;60.468;25.126;2023-11-22T00:18:46;6.67;;;2.83;;
14975;SDS011;7584;60.468;25.126;2023-11-22T00:21:11;5.17;;;2.53;;
14975;SDS011;7584;60.468;25.126;2023-11-22T00:23:37;9.03;;;2.90;;
14975;SDS011;7584;60.468;25.126;2023-11-22T00:26:02;4.93;;;2.63;;
14975;SDS011;7584;60.468;25.126;2023-11-22T00:28:28;4.77;;;2.80;;
14975;SDS011;7584;60.468;25.126;2023-11-22T00:30:54;4.30;;;2.30;;
14975;SDS011;7584;60.468;25.126;2023-11-22T00:33:19;3.60;;;2.40;;
14975;SDS011;7584;60.468;25.126;2023-11-22T00:35:45;4.53;;;2.30;;
14975;SDS011;7584;60.468;25.126;2023-11-22T00:38:10;6.27;;;2.70;;
14975;SDS011;7584;60.468;25.126;2023-11-22T00:40:35;4.03;;;2.33;;
14975;SDS011;7584;60.468;25.126;2023-11-22T00:43:01;4.47;;;2.13;;
14975;SDS011;7584;60.468;25.126;2023-11-22T00:45:26;3.80;;;2.40;;
14975;SDS011;7584;60.468;25.126;2023-11-22T00:47:51;9.20;;;2.70;;
14975;SDS011;7584;60.468;25.126;2023-11-22T00:50:17;4.60;;;2.60;;
14975;SDS011;7584;60.468;25.126;2023-11-22T00:52:45;5.27;;;2.40;;
14975;SDS011;7584;60.468;25.126;2023-11-22T00:55:10;5.90;;;2.60;;
14975;SDS011;7584;60.468;25.126;2023-11-22T00:57:36;3.60;;;2.30;;
14975;SDS011;7584;60.468;25.126;2023-11-22T01:00:02;4.97;;;2.83;;
14975;SDS011;7584;60.468;25.126;2023-11-22T01:02:29;2.97;;;2.20;;
14975;SDS011;7584;60.468;25.126;2023-11-22T01:04:55;4.40;;;2.30;;
14975;SDS011;7584;60.468;25.126;2023-11-22T01:07:20;4.47;;;2.10;;
14975;SDS011;7584;60.468;25.126;2023-11-22T01:09:45;3.37;;;2.03;;
14975;SDS011;7584;60.468;25.126;2023-11-22T01:12:10;3.10;;;2.10;;
14975;SDS011;7584;60.468;25.126;2023-11-22T01:14:37;4.17;;;2.40;;
14975;SDS011;7584;60.468;25.126;2023-11-22T01:17:02;4.27;;;2.10;;
14975;SDS011;7584;60.468;25.126;2023-11-22T01:19:28;3.07;;;1.97;;
14975;SDS011;7584;60.468;25.126;2023-11-22T01:21:53;2.07;;;1.63;;
14975;SDS011;7584;60.468;25.126;2023-11-22T01:24:19;3.93;;;2.37;;
14975;SDS011;7584;60.468;25.126;2023-11-22T01:26:44;3.50;;;1.50;;
14975;SDS011;7584;60.468;25.126;2023-11-22T01:29:09;3.63;;;1.77;;
14975;SDS011;7584;60.468;25.126;2023-11-22T01:31:37;3.90;;;2.30;;
14975;SDS011;7584;60.468;25.126;2023-11-22T01:34:02;4.07;;;2.00;;
14975;SDS011;7584;60.468;25.126;2023-11-22T01:36:29;4.47;;;2.30;;
14975;SDS011;7584;60.468;25.126;2023-11-22T01:38:54;4.00;;;2.20;;
14975;SDS011;7584;60.468;25.126;2023-11-22T01:41:21;2.57;;;1.47;;
14975;SDS011;7584;60.468;25.126;2023-11-22T01:43:46;4.13;;;2.23;;
14975;SDS011;7584;60.468;25.126;2023-11-22T01:46:18;3.87;;;2.40;;
14975;SDS011;7584;60.468;25.126;2023-11-22T01:48:46;2.40;;;1.80;;
14975;SDS011;7584;60.468;25.126;2023-11-22T01:51:11;3.83;;;2.37;;
14975;SDS011;7584;60.468;25.126;2023-11-22T01:53:37;4.47;;;2.40;;
14975;SDS011;7584;60.468;25.126;2023-11-22T01:56:02;3.73;;;2.03;;
14975;SDS011;7584;60.468;25.126;2023-11-22T01:58:27;5.93;;;2.40;;
14975;SDS011;7584;60.468;25.126;2023-11-22T02:00:53;2.97;;;1.70;;
14975;SDS011;7584;60.468;25.126;2023-11-22T02:03:18;3.17;;;1.67;;
14975;SDS011;7584;60.468;25.126;2023-11-22T02:05:46;4.23;;;2.17;;
14975;SDS011;7584;60.468;25.126;2023-11-22T02:08:12;3.80;;;2.10;;
14975;SDS011;7584;60.468;25.126;2023-11-22T02:10:39;4.37;;;1.90;;
14975;SDS011;7584;60.468;25.126;2023-11-22T02:13:07;3.23;;;2.10;;
14975;SDS011;7584;60.468;25.126;2023-11-22T02:15:36;8.83;;;2.70;;
14975;SDS011;7584;60.468;25.126;2023-11-22T02:18:02;3.23;;;1.80;;
14975;SDS011;7584;60.468;25.126;2023-11-22T02:20:27;5.53;;;2.57;;
14975;SDS011;7584;60.468;25.126;2023-11-22T02:22:53;2.80;;;2.07;;
14975;SDS011;7584;60.468;25.126;2023-11-22T02:25:19;3.30;;;2.00;;
14975;SDS011;7584;60.468;25.126;2023-11-22T02:27:45;4.13;;;2.20;;
14975;SDS011;7584;60.468;25.126;2023-11-22T02:30:10;3.63;;;2.27;;
14975;SDS011;7584;60.468;25.126;2023-11-22T02:32:36;4.23;;;2.30;;
14975;SDS011;7584;60.468;25.126;2023-11-22T02:35:01;3.57;;;2.20;;
14975;SDS011;7584;60.468;25.126;2023-11-22T02:37:29;3.60;;;2.30;;
14975;SDS011;7584;60.468;25.126;2023-11-22T02:40:00;4.27;;;2.10;;
14975;SDS011;7584;60.468;25.126;2023-11-22T02:42:26;2.93;;;2.13;;
14975;SDS011;7584;60.468;25.126;2023-11-22T02:44:51;5.40;;;2.70;;
14975;SDS011;7584;60.468;25.126;2023-11-22T02:47:16;4.03;;;2.67;;
14975;SDS011;7584;60.468;25.126;2023-11-22T02:49:41;3.57;;;1.90;;
14975;SDS011;7584;60.468;25.126;2023-11-22T02:52:07;3.93;;;2.33;;
14975;SDS011;7584;60.468;25.126;2023-11-22T02:54:32;4.23;;;1.90;;
14975;SDS011;7584;60.468;25.126;2023-11-22T02:56:57;3.53;;;1.70;;
14975;SDS011;7584;60.468;25.126;2023-11-22T02:59:23;4.03;;;2.33;;
14975;SDS011;7584;60.468;25.126;2023-11-22T03:01:48;4.27;;;2.27;;
14975;SDS011;7584;60.468;25.126;2023-11-22T03:04:16;3.43;;;2.07;;
14975;SDS011;7584;60.468;25.126;2023-11-22T03:06:41;3.67;;;2.23;;
14975;SDS011;7584;60.468;25.126;2023-11-22T03:09:06;5.27;;;2.53;;
14975;SDS011;7584;60.468;25.126;2023-11-22T03:11:33;3.87;;;2.00;;
14975;SDS011;7584;60.468;25.126;2023-11-22T03:13:58;4.57;;;2.10;;
14975;SDS011;7584;60.468;25.126;2023-11-22T03:16:24;5.07;;;1.87;;
14975;SDS011;7584;60.468;25.126;2023-11-22T03:18:49;7.97;;;2.17;;
14975;SDS011;7584;60.468;25.126;2023-11-22T03:21:16;4.83;;;2.23;;
14975;SDS011;7584;60.468;25.126;2023-11-22T03:23:42;12.17;;;2.77;;
14975;SDS011;7584;60.468;25.126;2023-11-22T03:26:07;2.87;;;1.83;;
14975;SDS011;7584;60.468;25.126;2023-11-22T03:28:32;3.90;;;2.20;;
14975;SDS011;7584;60.468;25.126;2023-11-22T03:30:58;3.43;;;1.90;;
14975;SDS011;7584;60.468;25.126;2023-11-22T03:33:24;4.93;;;2.00;;
14975;SDS011;7584;60.468;25.126;2023-11-22T03:35:49;3.40;;;1.60;;
14975;SDS011;7584;60.468;25.126;2023-11-22T03:38:14;5.93;;;1.73;;
14975;SDS011;7584;60.468;25.126;2023-11-22T03:40:40;4.27;;;2.30;;
14975;SDS011;7584;60.468;25.126;2023-11-22T03:43:05;3.83;;;1.77;;
14975;SDS011;7584;60.468;25.126;2023-11-22T03:45:33;5.90;;;2.00;;
14975;SDS011;7584;60.468;25.126;2023-11-22T03:47:58;4.63;;;2.50;;
14975;SDS011;7584;60.468;25.126;2023-11-22T03:50:23;6.33;;;2.03;;
14975;SDS011;7584;60.468;25.126;2023-11-22T03:52:49;5.07;;;2.10;;
14975;SDS011;7584;60.468;25.126;2023-11-22T03:55:14;4.70;;;2.13;;
14975;SDS011;7584;60.468;25.126;2023-11-22T03:57:39;3.50;;;2.07;;
14975;SDS011;7584;60.468;25.126;2023-11-22T04:00:05;6.07;;;2.67;;
14975;SDS011;7584;60.468;25.126;2023-11-22T04:02:31;6.63;;;1.90;;
14975;SDS011;7584;60.468;25.126;2023-11-22T04:04:56;3.50;;;1.70;;
14975;SDS011;7584;60.468;25.126;2023-11-22T04:07:22;3.40;;;1.97;;
14975;SDS011;7584;60.468;25.126;2023-11-22T04:09:50;5.00;;;2.37;;
14975;SDS011;7584;60.468;25.126;2023-11-22T04:12:15;3.37;;;1.73;;
14975;SDS011;7584;60.468;25.126;2023-11-22T04:14:41;4.43;;;2.23;;
14975;SDS011;7584;60.468;25.126;2023-11-22T04:17:06;5.07;;;2.27;;
14975;SDS011;7584;60.468;25.126;2023-11-22T04:19:31;4.30;;;1.77;;
14975;SDS011;7584;60.468;25.126;2023-11-22T04:21:57;4.67;;;2.10;;
14975;SDS011;7584;60.468;25.126;2023-11-22T04:24:24;10.87;;;1.97;;
14975;SDS011;7584;60.468;25.126;2023-11-22T04:26:49;3.30;;;1.97;;
14975;SDS011;7584;60.468;25.126;2023-11-22T04:29:14;2.87;;;1.80;;
14975;SDS011;7584;60.468;25.126;2023-11-22T04:31:41;6.00;;;1.53;;
14975;SDS011;7584;60.468;25.126;2023-11-22T04:34:06;3.70;;;2.17;;
14975;SDS011;7584;60.468;25.126;2023-11-22T04:36:32;6.83;;;2.20;;
14975;SDS011;7584;60.468;25.126;2023-11-22T04:38:57;3.47;;;1.90;;
14975;SDS011;7584;60.468;25.126;2023-11-22T04:41:22;8.00;;;2.00;;
14975;SDS011;7584;60.468;25.126;2023-11-22T04:43:47;3.40;;;1.80;;
14975;SDS011;7584;60.468;25.126;2023-11-22T04:46:13;3.03;;;1.97;;
14975;SDS011;7584;60.468;25.126;2023-11-22T04:48:38;4.77;;;2.17;;
14975;SDS011;7584;60.468;25.126;2023-11-22T04:51:05;4.60;;;2.27;;
14975;SDS011;7584;60.468;25.126;2023-11-22T04:53:30;4.67;;;1.70;;
14975;SDS011;7584;60.468;25.126;2023-11-22T04:55:57;17.47;;;1.87;;
14975;SDS011;7584;60.468;25.126;2023-11-22T04:58:24;4.00;;;2.63;;
14975;SDS011;7584;60.468;25.126;2023-11-22T05:00:49;3.17;;;2.00;;
14975;SDS011;7584;60.468;25.126;2023-11-22T05:03:14;9.77;;;2.37;;
14975;SDS011;7584;60.468;25.126;2023-11-22T05:05:39;4.17;;;2.47;;
14975;SDS011;7584;60.468;25.126;2023-11-22T05:08:05;7.17;;;2.50;;
14975;SDS011;7584;60.468;25.126;2023-11-22T05:10:30;6.47;;;2.23;;
14975;SDS011;7584;60.468;25.126;2023-11-22T05:12:55;4.17;;;2.23;;
14975;SDS011;7584;60.468;25.126;2023-11-22T05:15:24;9.73;;;1.77;;
14975;SDS011;7584;60.468;25.126;2023-11-22T05:17:49;3.90;;;1.97;;
14975;SDS011;7584;60.468;25.126;2023-11-22T05:20:15;3.33;;;1.80;;
14975;SDS011;7584;60.468;25.126;2023-11-22T05:22:40;5.97;;;2.37;;
14975;SDS011;7584;60.468;25.126;2023-11-22T05:25:06;6.50;;;1.53;;
14975;SDS011;7584;60.468;25.126;2023-11-22T05:27:32;7.40;;;2.10;;
14975;SDS011;7584;60.468;25.126;2023-11-22T05:29:57;3.33;;;2.07;;
14975;SDS011;7584;60.468;25.126;2023-11-22T05:32:23;5.80;;;2.10;;
14975;SDS011;7584;60.468;25.126;2023-11-22T05:34:48;7.30;;;1.90;;
14975;SDS011;7584;60.468;25.126;2023-11-22T05:37:14;9.63;;;2.27;;
14975;SDS011;7584;60.468;25.126;2023-11-22T05:39:39;5.13;;;1.83;;
14975;SDS011;7584;60.468;25.126;2023-11-22T05:42:04;4.23;;;2.60;;
14975;SDS011;7584;60.468;25.126;2023-11-22T05:44:30;10.50;;;2.77;;
14975;SDS011;7584;60.468;25.126;2023-11-22T05:46:55;20.90;;;3.00;;
14975;SDS011;7584;60.468;25.126;2023-11-22T05:49:20;13.10;;;2.63;;
14975;SDS011;7584;60.468;25.126;2023-11-22T05:51:46;10.23;;;2.47;;
14975;SDS011;7584;60.468;25.126;2023-11-22T05:54:11;11.63;;;2.63;;
14975;SDS011;7584;60.468;25.126;2023-11-22T05:56:38;2.67;;;1.53;;
14975;SDS011;7584;60.468;25.126;2023-11-22T05:59:03;5.33;;;2.40;;
14975;SDS011;7584;60.468;25.126;2023-11-22T06:01:29;9.03;;;2.90;;
14975;SDS011;7584;60.468;25.126;2023-11-22T06:03:55;14.67;;;2.90;;
14975;SDS011;7584;60.468;25.126;2023-11-22T06:06:20;11.57;;;2.37;;
14975;SDS011;7584;60.468;25.126;2023-11-22T06:08:46;13.53;;;2.90;;
14975;SDS011;7584;60.468;25.126;2023-11-22T06:11:12;11.47;;;2.40;;
14975;SDS011;7584;60.468;25.126;2023-11-22T06:13:38;7.67;;;2.53;;
14975;SDS011;7584;60.468;25.126;2023-11-22T06:16:04;20.67;;;3.47;;
14975;SDS011;7584;60.468;25.126;2023-11-22T06:18:29;11.37;;;2.83;;
14975;SDS011;7584;60.468;25.126;2023-11-22T06:20:55;10.77;;;2.87;;
14975;SDS011;7584;60.468;25.126;2023-11-22T06:23:20;12.53;;;3.23;;
14975;SDS011;7584;60.468;25.126;2023-11-22T06:25:45;11.53;;;3.10;;
14975;SDS011;7584;60.468;25.126;2023-11-22T06:28:11;13.17;;;3.47;;
14975;SDS011;7584;60.468;25.126;2023-11-22T06:30:36;6.67;;;3.07;;
14975;SDS011;7584;60.468;25.126;2023-11-22T06:33:02;12.00;;;3.57;;
14975;SDS011;7584;60.468;25.126;2023-11-22T06:35:27;20.37;;;3.90;;
14975;SDS011;7584;60.468;25.126;2023-11-22T06:37:53;11.30;;;3.20;;
14975;SDS011;7584;60.468;25.126;2023-11-22T06:40:18;11.83;;;3.40;;
14975;SDS011;7584;60.468;25.126;2023-11-22T06:42:46;7.73;;;2.40;;
14975;SDS011;7584;60.468;25.126;2023-11-22T06:45:11;6.47;;;3.03;;
14975;SDS011;7584;60.468;25.126;2023-11-22T06:47:41;8.93;;;2.47;;
14975;SDS011;7584;60.468;25.126;2023-11-22T06:50:07;11.33;;;2.90;;
14975;SDS011;7584;60.468;25.126;2023-11-22T06:52:40;4.63;;;2.20;;
14975;SDS011;7584;60.468;25.126;2023-11-22T06:55:06;7.60;;;3.20;;
14975;SDS011;7584;60.468;25.126;2023-11-22T06:57:35;8.20;;;2.63;;
14975;SDS011;7584;60.468;25.126;2023-11-22T07:00:00;8.07;;;2.83;;
14975;SDS011;7584;60.468;25.126;2023-11-22T07:02:35;9.63;;;3.10;;
14975;SDS011;7584;60.468;25.126;2023-11-22T07:05:03;8.47;;;3.10;;
14975;SDS011;7584;60.468;25.126;2023-11-22T07:07:31;9.67;;;2.53;;
14975;SDS011;7584;60.468;25.126;2023-11-22T07:09:57;13.43;;;3.87;;
14975;SDS011;7584;60.468;25.126;2023-11-22T07:12:23;7.17;;;2.63;;
14975;SDS011;7584;60.468;25.126;2023-11-22T07:14:49;13.10;;;3.77;;
14975;SDS011;7584;60.468;25.126;2023-11-22T07:17:15;11.63;;;3.03;;
14975;SDS011;7584;60.468;25.126;2023-11-22T07:19:40;9.73;;;3.50;;
14975;SDS011;7584;60.468;25.126;2023-11-22T07:22:11;10.57;;;3.33;;
14975;SDS011;7584;60.468;25.126;2023-11-22T07:24:44;10.07;;;3.67;;
14975;SDS011;7584;60.468;25.126;2023-11-22T07:27:16;8.93;;;3.47;;
14975;SDS011;7584;60.468;25.126;2023-11-22T07:29:41;11.47;;;4.40;;
14975;SDS011;7584;60.468;25.126;2023-11-22T07:32:07;11.23;;;4.33;;
14975;SDS011;7584;60.468;25.126;2023-11-22T07:34:34;11.30;;;4.30;;
14975;SDS011;7584;60.468;25.126;2023-11-22T07:36:59;12.50;;;5.10;;
14975;SDS011;7584;60.468;25.126;2023-11-22T07:39:24;11.73;;;4.77;;
14975;SDS011;7584;60.468;25.126;2023-11-22T07:41:52;9.33;;;4.43;;
14975;SDS011;7584;60.468;25.126;2023-11-22T07:44:18;13.40;;;4.23;;
14975;SDS011;7584;60.468;25.126;2023-11-22T07:46:43;14.17;;;4.57;;
14975;SDS011;7584;60.468;25.126;2023-11-22T07:49:09;6.77;;;3.50;;
14975;SDS011;7584;60.468;25.126;2023-11-22T07:51:35;8.50;;;3.57;;
14975;SDS011;7584;60.468;25.126;2023-11-22T07:54:02;7.80;;;3.30;;
14975;SDS011;7584;60.468;25.126;2023-11-22T07:56:27;5.67;;;3.00;;
14975;SDS011;7584;60.468;25.126;2023-11-22T07:58:54;9.00;;;3.60;;
14975;SDS011;7584;60.468;25.126;2023-11-22T08:01:20;4.17;;;2.40;;
14975;SDS011;7584;60.468;25.126;2023-11-22T08:03:45;4.73;;;2.70;;
14975;SDS011;7584;60.468;25.126;2023-11-22T08:06:11;5.43;;;2.80;;
14975;SDS011;7584;60.468;25.126;2023-11-22T08:08:36;5.00;;;2.90;;
14975;SDS011;7584;60.468;25.126;2023-11-22T08:11:04;5.10;;;2.60;;
14975;SDS011;7584;60.468;25.126;2023-11-22T08:13:30;7.40;;;2.97;;
14975;SDS011;7584;60.468;25.126;2023-11-22T08:15:55;5.07;;;2.80;;
14975;SDS011;7584;60.468;25.126;2023-11-22T08:18:21;4.60;;;2.90;;
14975;SDS011;7584;60.468;25.126;2023-11-22T08:20:47;7.67;;;2.87;;
14975;SDS011;7584;60.468;25.126;2023-11-22T08:23:12;8.13;;;2.93;;
14975;SDS011;7584;60.468;25.126;2023-11-22T08:25:40;7.60;;;2.90;;
14975;SDS011;7584;60.468;25.126;2023-11-22T08:28:05;6.17;;;2.70;;
14975;SDS011;7584;60.468;25.126;2023-11-22T08:30:33;4.73;;;2.57;;
14975;SDS011;7584;60.468;25.126;2023-11-22T08:33:00;5.43;;;2.77;;
14975;SDS011;7584;60.468;25.126;2023-11-22T08:35:27;5.17;;;2.60;;
14975;SDS011;7584;60.468;25.126;2023-11-22T08:37:52;4.53;;;2.50;;
14975;SDS011;7584;60.468;25.126;2023-11-22T08:40:18;5.00;;;3.13;;
14975;SDS011;7584;60.468;25.126;2023-11-22T08:42:46;4.10;;;2.70;;
14975;SDS011;7584;60.468;25.126;2023-11-22T08:45:12;7.70;;;2.87;;
14975;SDS011;7584;60.468;25.126;2023-11-22T08:47:38;5.37;;;3.10;;
14975;SDS011;7584;60.468;25.126;2023-11-22T08:50:04;4.87;;;3.07;;
14975;SDS011;7584;60.468;25.126;2023-11-22T08:52:30;6.57;;;3.10;;
14975;SDS011;7584;60.468;25.126;2023-11-22T08:54:56;3.80;;;2.63;;
14975;SDS011;7584;60.468;25.126;2023-11-22T08:57:21;4.67;;;2.57;;
14975;SDS011;7584;60.468;25.126;2023-11-22T08:59:46;5.73;;;2.73;;
14975;SDS011;7584;60.468;25.126;2023-11-22T09:02:12;6.57;;;2.60;;
14975;SDS011;7584;60.468;25.126;2023-11-22T09:04:38;5.53;;;2.57;;
14975;SDS011;7584;60.468;25.126;2023-11-22T09:07:03;4.23;;;2.53;;
14975;SDS011;7584;60.468;25.126;2023-11-22T09:09:30;4.13;;;2.67;;
14975;SDS011;7584;60.468;25.126;2023-11-22T09:11:59;4.20;;;2.43;;
14975;SDS011;7584;60.468;25.126;2023-11-22T09:14:24;6.80;;;3.00;;
14975;SDS011;7584;60.468;25.126;2023-11-22T09:16:50;4.60;;;2.43;;
14975;SDS011;7584;60.468;25.126;2023-11-22T09:19:20;5.17;;;2.80;;
14975;SDS011;7584;60.468;25.126;2023-11-22T09:21:45;6.40;;;2.70;;
14975;SDS011;7584;60.468;25.126;2023-11-22T09:24:11;3.07;;;2.00;;
14975;SDS011;7584;60.468;25.126;2023-11-22T09:26:37;4.13;;;2.47;;
14975;SDS011;7584;60.468;25.126;2023-11-22T09:29:02;3.00;;;2.10;;
14975;SDS011;7584;60.468;25.126;2023-11-22T09:31:29;4.47;;;2.30;;
14975;SDS011;7584;60.468;25.126;2023-11-22T09:33:54;4.80;;;2.47;;
14975;SDS011;7584;60.468;25.126;2023-11-22T09:36:21;4.70;;;2.40;;
14975;SDS011;7584;60.468;25.126;2023-11-22T09:38:47;6.03;;;2.40;;
14975;SDS011;7584;60.468;25.126;2023-11-22T09:41:12;4.47;;;2.30;;
14975;SDS011;7584;60.468;25.126;2023-11-22T09:43:38;5.27;;;2.87;;
14975;SDS011;7584;60.468;25.126;2023-11-22T09:46:05;5.10;;;2.90;;
14975;SDS011;7584;60.468;25.126;2023-11-22T09:48:30;5.47;;;3.03;;
14975;SDS011;7584;60.468;25.126;2023-11-22T09:50:57;4.53;;;2.00;;
14975;SDS011;7584;60.468;25.126;2023-11-22T09:53:25;4.17;;;2.77;;
14975;SDS011;7584;60.468;25.126;2023-11-22T09:55:52;5.03;;;2.50;;
14975;SDS011;7584;60.468;25.126;2023-11-22T09:58:17;3.50;;;2.40;;
14975;SDS011;7584;60.468;25.126;2023-11-22T10:00:44;6.40;;;3.30;;
14975;SDS011;7584;60.468;25.126;2023-11-22T10:03:10;6.27;;;3.00;;
14975;SDS011;7584;60.468;25.126;2023-11-22T10:05:38;4.10;;;2.67;;
14975;SDS011;7584;60.468;25.126;2023-11-22T10:08:04;5.30;;;3.13;;
14975;SDS011;7584;60.468;25.126;2023-11-22T10:10:29;3.43;;;2.53;;
14975;SDS011;7584;60.468;25.126;2023-11-22T10:12:57;4.63;;;2.70;;
14975;SDS011;7584;60.468;25.126;2023-11-22T10:15:23;8.27;;;3.27;;
14975;SDS011;7584;60.468;25.126;2023-11-22T10:17:58;6.50;;;3.73;;
14975;SDS011;7584;60.468;25.126;2023-11-22T10:20:25;6.17;;;3.40;;
14975;SDS011;7584;60.468;25.126;2023-11-22T10:23:00;4.47;;;2.67;;
14975;SDS011;7584;60.468;25.126;2023-11-22T10:25:25;4.00;;;2.30;;
14975;SDS011;7584;60.468;25.126;2023-11-22T10:27:50;5.57;;;2.97;;
14975;SDS011;7584;60.468;25.126;2023-11-22T10:30:16;4.90;;;2.90;;
14975;SDS011;7584;60.468;25.126;2023-11-22T10:32:42;6.00;;;2.67;;
14975;SDS011;7584;60.468;25.126;2023-11-22T10:35:07;6.47;;;3.20;;
14975;SDS011;7584;60.468;25.126;2023-11-22T10:37:33;4.23;;;2.40;;
14975;SDS011;7584;60.468;25.126;2023-11-22T10:39:59;3.10;;;2.20;;
14975;SDS011;7584;60.468;25.126;2023-11-22T10:42:24;4.93;;;2.63;;
14975;SDS011;7584;60.468;25.126;2023-11-22T10:44:51;5.57;;;2.90;;
14975;SDS011;7584;60.468;25.126;2023-11-22T10:47:19;7.63;;;3.00;;
14975;SDS011;7584;60.468;25.126;2023-11-22T10:49:45;6.57;;;3.00;;
14975;SDS011;7584;60.468;25.126;2023-11-22T10:52:11;4.20;;;2.73;;
14975;SDS011;7584;60.468;25.126;2023-11-22T10:54:38;4.77;;;2.70;;
14975;SDS011;7584;60.468;25.126;2023-11-22T10:57:07;6.27;;;2.90;;
14975;SDS011;7584;60.468;25.126;2023-11-22T10:59:32;3.97;;;2.30;;
14975;SDS011;7584;60.468;25.126;2023-11-22T11:01:58;4.47;;;2.90;;
14975;SDS011;7584;60.468;25.126;2023-11-22T11:04:39;4.23;;;3.10;;
14975;SDS011;7584;60.468;25.126;2023-11-22T11:07:05;5.20;;;3.40;;
14975;SDS011;7584;60.468;25.126;2023-11-22T11:09:31;5.17;;;2.90;;
14975;SDS011;7584;60.468;25.126;2023-11-22T11:11:58;6.13;;;3.30;;
14975;SDS011;7584;60.468;25.126;2023-11-22T11:14:24;5.07;;;3.20;;
14975;SDS011;7584;60.468;25.126;2023-11-22T11:16:49;5.07;;;2.70;;
14975;SDS011;7584;60.468;25.126;2023-11-22T11:19:19;7.13;;;3.17;;
14975;SDS011;7584;60.468;25.126;2023-11-22T11:21:47;3.53;;;2.47;;
14975;SDS011;7584;60.468;25.126;2023-11-22T11:24:13;3.57;;;2.43;;
14975;SDS011;7584;60.468;25.126;2023-11-22T11:26:39;5.67;;;3.37;;
14975;SDS011;7584;60.468;25.126;2023-11-22T11:29:04;4.30;;;2.80;;
14975;SDS011;7584;60.468;25.126;2023-11-22T11:31:31;4.07;;;2.90;;
14975;SDS011;7584;60.468;25.126;2023-11-22T11:34:00;5.67;;;2.93;;
14975;SDS011;7584;60.468;25.126;2023-11-22T11:36:29;4.67;;;2.90;;
14975;SDS011;7584;60.468;25.126;2023-11-22T11:38:56;4.33;;;2.70;;
14975;SDS011;7584;60.468;25.126;2023-11-22T11:41:27;5.67;;;3.30;;
14975;SDS011;7584;60.468;25.126;2023-11-22T11:43:54;4.63;;;2.90;;
14975;SDS011;7584;60.468;25.126;2023-11-22T11:46:20;4.40;;;3.13;;
14975;SDS011;7584;60.468;25.126;2023-11-22T11:48:48;5.77;;;3.10;;
14975;SDS011;7584;60.468;25.126;2023-11-22T11:51:14;4.70;;;2.80;;
14975;SDS011;7584;60.468;25.126;2023-11-22T11:53:40;6.13;;;2.83;;
14975;SDS011;7584;60.468;25.126;2023-11-22T11:56:06;5.60;;;3.23;;
14975;SDS011;7584;60.468;25.126;2023-11-22T11:58:32;5.17;;;2.97;;
14975;SDS011;7584;60.468;25.126;2023-11-22T12:00:57;6.73;;;3.53;;
14975;SDS011;7584;60.468;25.126;2023-11-22T12:03:23;4.50;;;2.57;;
14975;SDS011;7584;60.468;25.126;2023-11-22T12:05:49;3.67;;;2.60;;
14975;SDS011;7584;60.468;25.126;2023-11-22T12:08:14;4.27;;;2.67;;
14975;SDS011;7584;60.468;25.126;2023-11-22T12:10:45;5.27;;;2.63;;
14975;SDS011;7584;60.468;25.126;2023-11-22T12:13:20;3.33;;;2.10;;
14975;SDS011;7584;60.468;25.126;2023-11-22T12:15:46;3.13;;;2.30;;
14975;SDS011;7584;60.468;25.126;2023-11-22T12:18:12;6.77;;;2.23;;
14975;SDS011;7584;60.468;25.126;2023-11-22T12:20:38;2.07;;;1.40;;
14975;SDS011;7584;60.468;25.126;2023-11-22T12:23:03;3.90;;;1.37;;
14975;SDS011;7584;60.468;25.126;2023-11-22T12:25:29;2.30;;;1.10;;
14975;SDS011;7584;60.468;25.126;2023-11-22T12:27:55;3.50;;;1.10;;
14975;SDS011;7584;60.468;25.126;2023-11-22T12:30:34;2.53;;;1.03;;
14975;SDS011;7584;60.468;25.126;2023-11-22T12:35:28;3.60;;;1.20;;
14975;SDS011;7584;60.468;25.126;2023-11-22T12:37:53;1.90;;;1.23;;
14975;SDS011;7584;60.468;25.126;2023-11-22T12:40:20;2.80;;;1.13;;
14975;SDS011;7584;60.468;25.126;2023-11-22T12:42:50;2.23;;;1.27;;
14975;SDS011;7584;60.468;25.126;2023-11-22T12:45:34;1.23;;;0.93;;
14975;SDS011;7584;60.468;25.126;2023-11-22T12:48:19;1.23;;;0.90;;
14975;SDS011;7584;60.468;25.126;2023-11-22T12:50:44;2.27;;;0.73;;
14975;SDS011;7584;60.468;25.126;2023-11-22T12:53:13;2.87;;;1.30;;
14975;SDS011;7584;60.468;25.126;2023-11-22T12:55:45;1.80;;;1.20;;
14975;SDS011;7584;60.468;25.126;2023-11-22T12:58:11;4.73;;;1.60;;
14975;SDS011;7584;60.468;25.126;2023-11-22T13:00:37;3.17;;;1.10;;
14975;SDS011;7584;60.468;25.126;2023-11-22T13:03:05;2.17;;;1.70;;
14975;SDS011;7584;60.468;25.126;2023-11-22T13:05:30;4.60;;;2.40;;
14975;SDS011;7584;60.468;25.126;2023-11-22T13:07:56;9.63;;;3.13;;
14975;SDS011;7584;60.468;25.126;2023-11-22T13:10:22;5.47;;;2.23;;
14975;SDS011;7584;60.468;25.126;2023-11-22T13:12:51;1.97;;;0.80;;
14975;SDS011;7584;60.468;25.126;2023-11-22T13:15:16;2.50;;;1.10;;
14975;SDS011;7584;60.468;25.126;2023-11-22T13:17:42;4.60;;;2.07;;
14975;SDS011;7584;60.468;25.126;2023-11-22T13:20:07;5.20;;;2.40;;
14975;SDS011;7584;60.468;25.126;2023-11-22T13:22:41;3.13;;;1.70;;
14975;SDS011;7584;60.468;25.126;2023-11-22T13:25:09;4.30;;;2.67;;
14975;SDS011;7584;60.468;25.126;2023-11-22T13:27:44;3.27;;;1.30;;
14975;SDS011;7584;60.468;25.126;2023-11-22T13:30:09;4.73;;;1.70;;
14975;SDS011;7584;60.468;25.126;2023-11-22T13:32:34;3.43;;;1.60;;
14975;SDS011;7584;60.468;25.126;2023-11-22T13:35:00;2.97;;;1.70;;
14975;SDS011;7584;60.468;25.126;2023-11-22T13:37:26;3.13;;;1.60;;
14975;SDS011;7584;60.468;25.126;2023-11-22T13:39:52;2.53;;;1.40;;
14975;SDS011;7584;60.468;25.126;2023-11-22T13:42:17;1.00;;;0.90;;
14975;SDS011;7584;60.468;25.126;2023-11-22T13:44:43;3.83;;;1.90;;
14975;SDS011;7584;60.468;25.126;2023-11-22T13:47:12;4.33;;;1.63;;
14975;SDS011;7584;60.468;25.126;2023-11-22T13:49:39;2.20;;;1.33;;
14975;SDS011;7584;60.468;25.126;2023-11-22T13:52:04;3.43;;;1.10;;
14975;SDS011;7584;60.468;25.126;2023-11-22T13:54:29;2.90;;;1.10;;
14975;SDS011;7584;60.468;25.126;2023-11-22T13:56:57;3.27;;;1.13;;
14975;SDS011;7584;60.468;25.126;2023-11-22T13:59:22;2.40;;;1.07;;
14975;SDS011;7584;60.468;25.126;2023-11-22T14:01:48;3.07;;;0.90;;
14975;SDS011;7584;60.468;25.126;2023-11-22T14:04:13;2.33;;;1.10;;
14975;SDS011;7584;60.468;25.126;2023-11-22T14:06:38;2.10;;;0.90;;
14975;SDS011;7584;60.468;25.126;2023-11-22T14:09:04;1.00;;;0.80;;
14975;SDS011;7584;60.468;25.126;2023-11-22T14:11:30;1.40;;;1.00;;
14975;SDS011;7584;60.468;25.126;2023-11-22T14:13:56;1.80;;;0.80;;
14975;SDS011;7584;60.468;25.126;2023-11-22T14:16:23;2.33;;;0.90;;
14975;SDS011;7584;60.468;25.126;2023-11-22T14:18:48;2.40;;;1.00;;
14975;SDS011;7584;60.468;25.126;2023-11-22T14:21:14;6.27;;;1.40;;
14975;SDS011;7584;60.468;25.126;2023-11-22T14:23:41;2.10;;;1.27;;
14975;SDS011;7584;60.468;25.126;2023-11-22T14:26:06;1.73;;;0.60;;
14975;SDS011;7584;60.468;25.126;2023-11-22T14:28:31;7.90;;;4.60;;
14975;SDS011;7584;60.468;25.126;2023-11-22T14:30:58;1.83;;;0.87;;
14975;SDS011;7584;60.468;25.126;2023-11-22T14:33:23;1.60;;;0.53;;
14975;SDS011;7584;60.468;25.126;2023-11-22T14:35:48;1.33;;;0.70;;
14975;SDS011;7584;60.468;25.126;2023-11-22T14:38:14;1.47;;;0.70;;
14975;SDS011;7584;60.468;25.126;2023-11-22T14:40:39;1.70;;;1.20;;
14975;SDS011;7584;60.468;25.126;2023-11-22T14:43:05;4.37;;;0.93;;